Time;durP1;ratioP1;P1;durP2;ratioP2;P2;SDS_P1;SDS_P2;PMS_P1;PMS_P2;Temp;Humidity;BMP_temperature;BMP_pressure;BME280_temperature;BME280_humidity;BME280_pressure;Samples;Min_cycle;Max_cycle;Signal;HPM_P1;HPM_P2
2023/07/26 00:01:54;;;;;;;3.50;3.20;;;;;;;;;;4950696;28;20662;-71
2023/07/26 00:04:20;;;;;;;4.35;3.95;;;;;;;;;;4947767;28;20242;-72
2023/07/26 00:06:45;;;;;;;5.53;3.72;;;;;;;;;;4946675;23;20351;-69
2023/07/26 00:09:10;;;;;;;3.80;3.25;;;;;;;;;;4928494;28;20569;-68
2023/07/26 00:11:36;;;;;;;4.78;3.78;;;;;;;;;;4929139;28;20560;-69
2023/07/26 00:14:03;;;;;;;4.68;3.22;;;;;;;;;;4930024;28;20190;-69
2023/07/26 00:16:28;;;;;;;5.57;3.30;;;;;;;;;;4926676;28;20196;-68
2023/07/26 00:18:53;;;;;;;6.28;3.42;;;;;;;;;;4928434;29;20189;-68
2023/07/26 00:21:19;;;;;;;3.55;2.90;;;;;;;;;;4928731;29;20193;-68
2023/07/26 00:23:44;;;;;;;7.70;4.25;;;;;;;;;;4927377;29;20197;-69
2023/07/26 00:26:09;;;;;;;5.13;4.38;;;;;;;;;;4925091;28;21857;-69
2023/07/26 00:28:34;;;;;;;3.80;3.40;;;;;;;;;;4928448;29;20673;-68
2023/07/26 00:30:59;;;;;;;4.18;3.58;;;;;;;;;;4925103;29;20652;-68
2023/07/26 00:33:25;;;;;;;5.22;4.07;;;;;;;;;;4925736;29;20185;-69
2023/07/26 00:35:50;;;;;;;5.45;4.05;;;;;;;;;;4928655;29;20201;-69
2023/07/26 00:38:15;;;;;;;4.47;3.78;;;;;;;;;;4928445;29;20843;-68
2023/07/26 00:40:40;;;;;;;5.82;3.95;;;;;;;;;;4928744;29;20185;-69
2023/07/26 00:43:06;;;;;;;4.53;3.92;;;;;;;;;;4928658;29;20190;-68
2023/07/26 00:45:33;;;;;;;4.28;3.25;;;;;;;;;;4931336;29;20276;-68
2023/07/26 00:47:58;;;;;;;4.20;3.67;;;;;;;;;;4931949;29;21055;-68
2023/07/26 00:50:23;;;;;;;5.22;4.07;;;;;;;;;;4931631;29;21022;-69
2023/07/26 00:52:49;;;;;;;4.22;3.83;;;;;;;;;;4932423;29;20212;-68
2023/07/26 00:55:14;;;;;;;5.78;4.00;;;;;;;;;;4933830;29;20181;-69
2023/07/26 00:57:40;;;;;;;4.72;4.20;;;;;;;;;;4930961;28;20264;-68
2023/07/26 01:00:07;;;;;;;6.43;4.10;;;;;;;;;;4929881;29;20720;-69
2023/07/26 01:02:32;;;;;;;10.57;4.75;;;;;;;;;;4930650;29;20196;-68
2023/07/26 01:04:58;;;;;;;5.53;4.15;;;;;;;;;;4932752;29;20189;-68
2023/07/26 01:07:32;;;;;;;5.90;4.40;;;;;;;;;;4931600;29;20320;-68
2023/07/26 01:09:57;;;;;;;5.10;4.13;;;;;;;;;;4931900;28;20189;-68
2023/07/26 01:12:26;;;;;;;6.23;4.80;;;;;;;;;;4931798;29;20730;-68
2023/07/26 01:14:51;;;;;;;7.83;5.10;;;;;;;;;;4928110;29;24372;-69
2023/07/26 01:17:16;;;;;;;6.50;5.37;;;;;;;;;;4932053;28;20201;-69
2023/07/26 01:19:41;;;;;;;6.22;4.18;;;;;;;;;;4931075;29;20190;-68
2023/07/26 01:22:07;;;;;;;5.80;4.10;;;;;;;;;;4928882;29;20190;-69
2023/07/26 01:24:32;;;;;;;6.70;4.63;;;;;;;;;;4932580;29;20192;-69
2023/07/26 01:26:57;;;;;;;5.43;4.20;;;;;;;;;;4932906;28;20782;-69
2023/07/26 01:29:23;;;;;;;5.70;4.17;;;;;;;;;;4921851;29;20196;-69
2023/07/26 01:31:48;;;;;;;5.80;4.67;;;;;;;;;;4932559;28;20265;-68
2023/07/26 01:34:14;;;;;;;6.00;4.77;;;;;;;;;;4930921;29;20197;-68
2023/07/26 01:36:40;;;;;;;5.03;3.70;;;;;;;;;;4930551;28;20206;-68
2023/07/26 01:39:05;;;;;;;5.97;4.47;;;;;;;;;;4929365;29;20180;-68
2023/07/26 01:41:31;;;;;;;4.27;3.87;;;;;;;;;;4931364;29;20192;-68
2023/07/26 01:43:56;;;;;;;5.23;4.40;;;;;;;;;;4931130;29;20735;-69
2023/07/26 01:46:21;;;;;;;6.20;4.33;;;;;;;;;;4929407;29;21021;-69
2023/07/26 01:48:46;;;;;;;9.03;4.63;;;;;;;;;;4931209;29;20220;-67
2023/07/26 01:51:12;;;;;;;9.63;5.10;;;;;;;;;;4929860;29;20213;-68
2023/07/26 01:53:37;;;;;;;6.23;4.53;;;;;;;;;;4929852;29;20177;-68
2023/07/26 01:56:02;;;;;;;5.93;4.60;;;;;;;;;;4930572;28;20201;-69
2023/07/26 01:58:27;;;;;;;5.67;4.37;;;;;;;;;;4928104;29;20182;-69
2023/07/26 02:00:53;;;;;;;6.97;4.93;;;;;;;;;;4931820;29;20224;-68
2023/07/26 02:03:18;;;;;;;8.20;4.90;;;;;;;;;;4930472;29;20201;-69
2023/07/26 02:05:44;;;;;;;5.87;4.60;;;;;;;;;;4928604;28;20196;-69
2023/07/26 02:08:09;;;;;;;5.27;4.77;;;;;;;;;;4933267;28;20188;-69
2023/07/26 02:10:34;;;;;;;8.27;5.93;;;;;;;;;;4932470;28;20264;-69
2023/07/26 02:13:00;;;;;;;9.20;7.47;;;;;;;;;;4931057;29;20845;-69
2023/07/26 02:15:25;;;;;;;10.97;8.20;;;;;;;;;;4930124;29;20615;-70
2023/07/26 02:17:50;;;;;;;9.50;6.73;;;;;;;;;;4933939;29;20853;-69
2023/07/26 02:20:15;;;;;;;8.50;6.77;;;;;;;;;;4931407;29;20675;-69
2023/07/26 02:22:41;;;;;;;12.07;8.23;;;;;;;;;;4932014;29;20193;-69
2023/07/26 02:25:06;;;;;;;12.03;7.83;;;;;;;;;;4930054;29;20660;-68
2023/07/26 02:27:31;;;;;;;10.80;7.83;;;;;;;;;;4930774;29;20209;-68
2023/07/26 02:29:56;;;;;;;9.60;7.10;;;;;;;;;;4931459;29;20189;-68
2023/07/26 02:32:21;;;;;;;11.80;7.93;;;;;;;;;;4931176;29;20248;-68
2023/07/26 02:34:47;;;;;;;11.13;7.13;;;;;;;;;;4930636;29;20189;-69
2023/07/26 02:37:12;;;;;;;10.90;7.17;;;;;;;;;;4928436;28;20213;-69
2023/07/26 02:39:37;;;;;;;10.67;7.67;;;;;;;;;;4929785;29;20215;-69
2023/07/26 02:42:03;;;;;;;13.77;7.97;;;;;;;;;;4928074;29;20239;-68
2023/07/26 02:44:28;;;;;;;11.20;7.20;;;;;;;;;;4931287;29;20188;-69
2023/07/26 02:46:53;;;;;;;12.00;8.00;;;;;;;;;;4927199;29;21145;-69
2023/07/26 02:49:18;;;;;;;11.70;8.13;;;;;;;;;;4930112;29;20197;-69
2023/07/26 02:51:43;;;;;;;10.13;7.50;;;;;;;;;;4931929;29;20205;-68
2023/07/26 02:54:09;;;;;;;10.40;8.03;;;;;;;;;;4930809;29;20205;-68
2023/07/26 02:56:34;;;;;;;12.00;7.07;;;;;;;;;;4930928;29;20239;-68
2023/07/26 02:58:59;;;;;;;11.80;7.33;;;;;;;;;;4930723;29;20304;-68
2023/07/26 03:01:24;;;;;;;10.53;7.73;;;;;;;;;;4930567;29;20212;-69
2023/07/26 03:03:50;;;;;;;8.53;7.00;;;;;;;;;;4931362;28;20192;-70
2023/07/26 03:06:15;;;;;;;11.57;7.63;;;;;;;;;;4928417;29;20774;-67
2023/07/26 03:08:40;;;;;;;9.47;6.80;;;;;;;;;;4931721;29;20248;-68
2023/07/26 03:11:05;;;;;;;10.50;7.73;;;;;;;;;;4931154;29;20212;-68
2023/07/26 03:13:30;;;;;;;11.00;7.73;;;;;;;;;;4931811;29;20185;-68
2023/07/26 03:15:56;;;;;;;11.53;6.87;;;;;;;;;;4930761;28;20208;-70
2023/07/26 03:18:21;;;;;;;8.73;6.60;;;;;;;;;;4930850;29;20213;-68
2023/07/26 03:20:46;;;;;;;12.57;6.97;;;;;;;;;;4927691;29;20284;-70
2023/07/26 03:23:12;;;;;;;11.00;7.57;;;;;;;;;;4932042;29;20343;-68
2023/07/26 03:25:37;;;;;;;12.10;7.17;;;;;;;;;;4931544;28;20652;-69
2023/07/26 03:28:03;;;;;;;9.87;7.67;;;;;;;;;;4929885;29;20667;-68
2023/07/26 03:30:29;;;;;;;11.70;5.93;;;;;;;;;;4930218;29;20276;-69
2023/07/26 03:32:54;;;;;;;9.03;6.53;;;;;;;;;;4931976;29;20208;-69
2023/07/26 03:35:19;;;;;;;12.00;7.40;;;;;;;;;;4926293;29;27718;-69
2023/07/26 03:37:44;;;;;;;11.70;7.47;;;;;;;;;;4931000;28;20205;-69
2023/07/26 03:40:10;;;;;;;9.27;6.93;;;;;;;;;;4930690;29;20186;-69
2023/07/26 03:42:35;;;;;;;9.20;6.10;;;;;;;;;;4930065;29;20679;-68
2023/07/26 03:45:00;;;;;;;7.70;6.17;;;;;;;;;;4930660;29;20674;-69
2023/07/26 03:47:26;;;;;;;8.33;5.67;;;;;;;;;;4930183;28;20845;-69
2023/07/26 03:49:51;;;;;;;9.30;7.20;;;;;;;;;;4930010;29;20660;-69
2023/07/26 03:52:16;;;;;;;13.00;7.23;;;;;;;;;;4930557;29;21146;-69
2023/07/26 03:54:41;;;;;;;11.27;7.77;;;;;;;;;;4927763;29;20201;-69
2023/07/26 03:57:07;;;;;;;10.40;7.00;;;;;;;;;;4929912;28;20296;-69
2023/07/26 03:59:33;;;;;;;8.37;6.17;;;;;;;;;;4931229;28;20190;-69
2023/07/26 04:01:58;;;;;;;10.47;7.67;;;;;;;;;;4931128;29;20196;-70
2023/07/26 04:04:23;;;;;;;11.10;7.73;;;;;;;;;;4929190;29;20308;-69
2023/07/26 04:06:48;;;;;;;9.90;7.23;;;;;;;;;;4930828;28;20235;-69
2023/07/26 04:09:14;;;;;;;9.70;7.33;;;;;;;;;;4930724;29;20185;-69
2023/07/26 04:11:39;;;;;;;11.75;7.72;;;;;;;;;;4930587;29;20888;-69
2023/07/26 04:14:04;;;;;;;10.45;7.00;;;;;;;;;;4926884;28;20185;-69
2023/07/26 04:16:29;;;;;;;8.50;6.90;;;;;;;;;;4930045;28;20204;-69
2023/07/26 04:18:54;;;;;;;9.32;6.45;;;;;;;;;;4930656;29;20192;-69
2023/07/26 04:21:20;;;;;;;10.70;7.13;;;;;;;;;;4927604;29;20189;-69
2023/07/26 04:23:45;;;;;;;9.35;6.45;;;;;;;;;;4929311;29;20193;-69
2023/07/26 04:26:11;;;;;;;8.97;7.20;;;;;;;;;;4929624;28;21080;-70
2023/07/26 04:28:36;;;;;;;8.45;6.15;;;;;;;;;;4929784;28;20197;-68
2023/07/26 04:31:02;;;;;;;23.90;7.05;;;;;;;;;;4928905;29;20193;-68
2023/07/26 04:33:28;;;;;;;8.00;6.38;;;;;;;;;;4928783;29;20204;-68
2023/07/26 04:35:53;;;;;;;9.55;6.15;;;;;;;;;;4926061;28;20213;-69
2023/07/26 04:38:19;;;;;;;8.25;6.07;;;;;;;;;;4930657;29;20185;-69
2023/07/26 04:40:47;;;;;;;9.88;6.40;;;;;;;;;;4926960;29;20192;-69
2023/07/26 04:43:12;;;;;;;8.90;5.97;;;;;;;;;;4929060;28;21405;-69
2023/07/26 04:45:38;;;;;;;12.75;6.72;;;;;;;;;;4926499;29;20335;-69
2023/07/26 04:48:03;;;;;;;9.15;6.28;;;;;;;;;;4928455;29;20186;-69
2023/07/26 04:50:29;;;;;;;7.68;5.90;;;;;;;;;;4928633;29;21088;-68
2023/07/26 04:52:55;;;;;;;7.03;5.30;;;;;;;;;;4926652;29;20589;-69
2023/07/26 04:55:20;;;;;;;7.78;5.55;;;;;;;;;;4928557;29;20181;-69
2023/07/26 04:57:45;;;;;;;6.65;5.13;;;;;;;;;;4928386;28;20205;-69
2023/07/26 05:00:11;;;;;;;7.47;5.30;;;;;;;;;;4927031;28;20221;-69
2023/07/26 05:02:36;;;;;;;6.95;5.53;;;;;;;;;;4929562;29;20208;-69
2023/07/26 05:05:01;;;;;;;11.27;5.65;;;;;;;;;;4929847;29;20192;-69
2023/07/26 05:07:27;;;;;;;7.57;5.50;;;;;;;;;;4929283;28;20228;-69
2023/07/26 05:09:52;;;;;;;6.95;5.38;;;;;;;;;;4928179;29;20194;-69
2023/07/26 05:12:17;;;;;;;8.45;5.22;;;;;;;;;;4950219;28;20232;-69
2023/07/26 05:14:43;;;;;;;6.57;5.40;;;;;;;;;;4927408;29;20222;-69
2023/07/26 05:17:08;;;;;;;7.32;5.15;;;;;;;;;;4922434;28;20208;-69
2023/07/26 05:19:33;;;;;;;12.15;5.93;;;;;;;;;;4929140;29;20229;-69
2023/07/26 05:21:58;;;;;;;7.75;5.72;;;;;;;;;;4928067;29;20896;-69
2023/07/26 05:24:24;;;;;;;10.82;6.18;;;;;;;;;;4928201;29;20252;-69
2023/07/26 05:26:49;;;;;;;7.30;5.03;;;;;;;;;;4928174;28;20620;-69
2023/07/26 05:29:14;;;;;;;7.80;5.47;;;;;;;;;;4931302;29;20346;-69
2023/07/26 05:31:39;;;;;;;10.18;5.63;;;;;;;;;;4926894;29;20692;-69
2023/07/26 05:34:05;;;;;;;8.57;5.93;;;;;;;;;;4929541;29;20196;-70
2023/07/26 05:36:30;;;;;;;7.75;6.07;;;;;;;;;;4930136;28;20209;-69
2023/07/26 05:38:55;;;;;;;7.15;5.95;;;;;;;;;;4928205;29;20185;-69
2023/07/26 05:41:21;;;;;;;9.60;6.32;;;;;;;;;;4929009;29;20200;-69
2023/07/26 05:43:46;;;;;;;8.45;5.65;;;;;;;;;;4932101;28;20193;-69
2023/07/26 05:46:11;;;;;;;9.30;6.05;;;;;;;;;;4927851;29;20228;-69
2023/07/26 05:48:36;;;;;;;7.80;5.80;;;;;;;;;;4931151;29;20277;-69
2023/07/26 05:51:03;;;;;;;10.38;6.57;;;;;;;;;;4929074;29;20817;-69
2023/07/26 05:53:28;;;;;;;7.38;5.82;;;;;;;;;;4931906;28;20185;-69
2023/07/26 05:55:53;;;;;;;6.82;5.80;;;;;;;;;;4930218;29;20212;-69
2023/07/26 05:58:18;;;;;;;9.00;6.30;;;;;;;;;;4930132;29;20181;-69
2023/07/26 06:00:43;;;;;;;12.45;7.18;;;;;;;;;;4926899;29;20272;-69
2023/07/26 06:03:09;;;;;;;13.60;7.32;;;;;;;;;;4930774;29;20197;-70
2023/07/26 06:05:34;;;;;;;10.80;7.63;;;;;;;;;;4930099;28;20189;-70
2023/07/26 06:07:59;;;;;;;13.05;7.82;;;;;;;;;;4989476;23;20305;-74
2023/07/26 06:10:24;;;;;;;12.63;6.80;;;;;;;;;;4990414;28;20668;-73
2023/07/26 06:12:50;;;;;;;7.57;4.57;;;;;;;;;;4988777;28;20210;-74
2023/07/26 06:15:15;;;;;;;5.25;3.72;;;;;;;;;;4988530;28;20265;-74
2023/07/26 06:17:40;;;;;;;8.40;4.05;;;;;;;;;;4989068;28;20202;-75
2023/07/26 06:20:06;;;;;;;7.40;5.22;;;;;;;;;;4986513;28;20184;-76
2023/07/26 06:22:31;;;;;;;8.40;5.57;;;;;;;;;;4988277;28;20856;-77
2023/07/26 06:24:56;;;;;;;7.70;5.60;;;;;;;;;;4990020;28;20183;-77
2023/07/26 06:27:22;;;;;;;8.52;4.90;;;;;;;;;;4997789;28;20200;-79
2023/07/26 06:29:47;;;;;;;6.18;4.45;;;;;;;;;;5002071;28;20187;-79
2023/07/26 06:32:12;;;;;;;6.63;5.00;;;;;;;;;;5011441;28;20219;-79
2023/07/26 06:34:38;;;;;;;5.38;3.58;;;;;;;;;;5008947;28;20183;-80
2023/07/26 06:37:03;;;;;;;6.45;4.20;;;;;;;;;;4999214;28;20548;-78
2023/07/26 06:39:28;;;;;;;7.85;5.43;;;;;;;;;;5002857;28;20698;-80
2023/07/26 06:41:54;;;;;;;8.13;4.93;;;;;;;;;;4998815;28;20242;-80
2023/07/26 06:44:19;;;;;;;5.80;4.90;;;;;;;;;;4993345;28;20187;-81
2023/07/26 06:46:44;;;;;;;6.63;5.22;;;;;;;;;;4987351;28;20204;-81
2023/07/26 06:49:10;;;;;;;6.35;4.53;;;;;;;;;;4986493;28;20196;-81
2023/07/26 06:51:35;;;;;;;6.70;5.13;;;;;;;;;;4984841;28;20235;-80
2023/07/26 06:54:00;;;;;;;8.25;5.60;;;;;;;;;;4985802;28;21033;-80
2023/07/26 06:56:25;;;;;;;9.07;6.18;;;;;;;;;;4989047;28;20223;-79
2023/07/26 06:58:52;;;;;;;7.95;5.35;;;;;;;;;;4990981;28;20887;-80
2023/07/26 07:01:17;;;;;;;8.70;5.72;;;;;;;;;;4988053;28;20255;-80
2023/07/26 07:03:42;;;;;;;6.45;5.75;;;;;;;;;;4992026;28;20294;-79
2023/07/26 07:06:07;;;;;;;8.13;5.93;;;;;;;;;;4993149;28;20194;-78
2023/07/26 07:08:33;;;;;;;9.23;6.55;;;;;;;;;;4987325;28;20206;-77
2023/07/26 07:10:58;;;;;;;11.07;6.72;;;;;;;;;;4982456;28;20192;-78
2023/07/26 07:13:23;;;;;;;10.23;6.90;;;;;;;;;;4989067;28;20195;-78
2023/07/26 07:15:48;;;;;;;9.05;7.38;;;;;;;;;;5007700;28;20180;-78
2023/07/26 07:18:14;;;;;;;7.95;5.47;;;;;;;;;;5005051;28;20210;-78
2023/07/26 07:20:39;;;;;;;5.65;5.05;;;;;;;;;;4993158;28;20198;-76
2023/07/26 07:23:05;;;;;;;5.45;4.63;;;;;;;;;;4978452;28;20180;-76
2023/07/26 07:25:30;;;;;;;7.32;5.03;;;;;;;;;;4979194;28;20217;-77
2023/07/26 07:27:55;;;;;;;6.22;5.63;;;;;;;;;;4975787;28;20274;-77
2023/07/26 07:30:20;;;;;;;5.35;4.65;;;;;;;;;;4976128;28;20178;-76
2023/07/26 07:32:46;;;;;;;5.43;4.78;;;;;;;;;;4975207;28;20230;-76
2023/07/26 07:35:11;;;;;;;7.47;6.05;;;;;;;;;;4974473;28;20964;-77
2023/07/26 07:37:36;;;;;;;7.93;5.90;;;;;;;;;;4976509;28;20210;-77
2023/07/26 07:40:03;;;;;;;8.48;6.28;;;;;;;;;;4975382;28;20305;-76
2023/07/26 07:42:29;;;;;;;6.57;5.88;;;;;;;;;;4971621;28;20222;-76
2023/07/26 07:44:55;;;;;;;6.25;5.63;;;;;;;;;;4976885;28;20201;-75
2023/07/26 07:47:20;;;;;;;7.38;5.65;;;;;;;;;;4968191;28;20709;-74
2023/07/26 07:49:46;;;;;;;7.35;6.55;;;;;;;;;;4970814;28;20191;-74
2023/07/26 07:52:12;;;;;;;8.55;6.00;;;;;;;;;;4972474;28;20214;-74
2023/07/26 07:54:37;;;;;;;8.80;5.25;;;;;;;;;;4971329;28;20656;-74
2023/07/26 07:57:02;;;;;;;6.90;5.72;;;;;;;;;;4970783;28;20214;-75
2023/07/26 07:59:27;;;;;;;7.13;5.00;;;;;;;;;;4974580;28;20921;-75
2023/07/26 08:01:53;;;;;;;5.15;4.20;;;;;;;;;;4970529;28;20246;-75
2023/07/26 08:04:18;;;;;;;5.75;3.85;;;;;;;;;;4970516;28;20191;-74
2023/07/26 08:06:43;;;;;;;5.07;3.60;;;;;;;;;;4971392;28;20215;-75
2023/07/26 08:09:08;;;;;;;9.73;4.75;;;;;;;;;;4971688;28;20187;-75
2023/07/26 08:11:34;;;;;;;6.38;4.88;;;;;;;;;;4973959;28;20294;-75
2023/07/26 08:13:59;;;;;;;5.65;4.90;;;;;;;;;;4974182;28;20416;-74
2023/07/26 08:16:24;;;;;;;6.57;4.47;;;;;;;;;;4971522;28;20863;-74
2023/07/26 08:18:49;;;;;;;8.95;3.90;;;;;;;;;;4976149;28;20344;-73
2023/07/26 08:21:15;;;;;;;6.45;4.10;;;;;;;;;;4973495;28;20187;-74
2023/07/26 08:23:40;;;;;;;7.88;4.50;;;;;;;;;;4976183;28;20187;-74
2023/07/26 08:26:06;;;;;;;6.47;3.60;;;;;;;;;;4973399;28;20184;-75
2023/07/26 08:28:32;;;;;;;5.35;3.20;;;;;;;;;;4976357;28;20763;-73
2023/07/26 08:30:58;;;;;;;7.03;2.97;;;;;;;;;;4976828;28;20198;-71
2023/07/26 08:33:23;;;;;;;4.78;2.90;;;;;;;;;;4967535;28;20211;-72
2023/07/26 08:35:48;;;;;;;5.07;2.42;;;;;;;;;;4969436;28;21610;-72
2023/07/26 08:38:13;;;;;;;4.88;2.65;;;;;;;;;;4971749;28;20580;-73
2023/07/26 08:40:46;;;;;;;3.95;2.85;;;;;;;;;;4971844;28;20185;-72
2023/07/26 08:43:13;;;;;;;3.88;2.67;;;;;;;;;;4974365;28;20227;-70
2023/07/26 08:45:39;;;;;;;3.25;1.88;;;;;;;;;;4972601;28;20330;-75
2023/07/26 08:48:04;;;;;;;2.70;1.90;;;;;;;;;;4974598;28;20212;-73
2023/07/26 08:50:30;;;;;;;3.50;2.47;;;;;;;;;;4973663;28;20199;-72
2023/07/26 08:52:55;;;;;;;4.18;1.98;;;;;;;;;;4969776;28;20208;-72
2023/07/26 08:55:21;;;;;;;3.83;2.42;;;;;;;;;;4970051;28;20192;-72
2023/07/26 08:57:46;;;;;;;5.13;2.38;;;;;;;;;;4971494;28;20203;-72
2023/07/26 09:00:12;;;;;;;6.03;2.80;;;;;;;;;;4977677;28;20183;-71
2023/07/26 09:02:39;;;;;;;8.73;2.63;;;;;;;;;;4976792;28;20197;-72
2023/07/26 09:05:04;;;;;;;6.85;2.38;;;;;;;;;;4975385;28;20183;-73
2023/07/26 09:07:29;;;;;;;6.72;1.92;;;;;;;;;;4973795;28;20226;-72
2023/07/26 09:09:55;;;;;;;5.90;2.22;;;;;;;;;;4975423;28;20748;-72
2023/07/26 09:12:28;;;;;;;2.88;1.83;;;;;;;;;;4974745;28;20491;-72
2023/07/26 09:14:54;;;;;;;3.25;1.90;;;;;;;;;;4974574;28;20583;-74
2023/07/26 09:17:19;;;;;;;2.45;1.85;;;;;;;;;;4978940;28;20229;-72
2023/07/26 09:19:44;;;;;;;2.53;1.58;;;;;;;;;;4988832;28;20286;-72
2023/07/26 09:22:09;;;;;;;3.30;1.92;;;;;;;;;;4985778;28;20191;-73
2023/07/26 09:24:37;;;;;;;2.65;1.67;;;;;;;;;;4988972;28;20192;-73
2023/07/26 09:27:06;;;;;;;4.18;2.05;;;;;;;;;;4988114;28;20214;-72
2023/07/26 09:29:31;;;;;;;3.30;1.67;;;;;;;;;;4992502;28;20190;-72
2023/07/26 09:31:57;;;;;;;3.90;1.77;;;;;;;;;;4989653;28;20214;-70
2023/07/26 09:34:22;;;;;;;3.75;1.60;;;;;;;;;;4989222;28;20183;-70
2023/07/26 09:36:50;;;;;;;1.70;1.27;;;;;;;;;;4985949;28;20199;-75
2023/07/26 09:39:17;;;;;;;3.63;1.80;;;;;;;;;;4986687;28;20188;-71
2023/07/26 09:41:45;;;;;;;2.13;1.33;;;;;;;;;;4990196;28;20579;-73
2023/07/26 09:44:15;;;;;;;3.45;0.90;;;;;;;;;;4990097;28;20179;-72
2023/07/26 09:46:50;;;;;;;1.70;1.23;;;;;;;;;;4991559;28;20297;-70
2023/07/26 09:49:23;;;;;;;2.60;1.20;;;;;;;;;;4991035;28;20191;-73
2023/07/26 09:51:48;;;;;;;1.77;1.25;;;;;;;;;;4988520;28;20214;-72
2023/07/26 09:54:14;;;;;;;5.32;1.30;;;;;;;;;;4987700;28;20180;-71
2023/07/26 09:56:41;;;;;;;1.70;1.13;;;;;;;;;;4989630;28;20353;-72
2023/07/26 09:59:09;;;;;;;2.88;1.20;;;;;;;;;;4987231;28;20180;-73
2023/07/26 10:01:38;;;;;;;1.92;1.30;;;;;;;;;;4985675;28;20302;-76
2023/07/26 10:04:03;;;;;;;1.52;1.10;;;;;;;;;;4987923;28;20187;-73
2023/07/26 10:06:32;;;;;;;1.90;1.33;;;;;;;;;;4986882;28;20234;-72
2023/07/26 10:08:57;;;;;;;3.25;1.33;;;;;;;;;;4991383;28;20179;-73
2023/07/26 10:11:24;;;;;;;5.05;2.47;;;;;;;;;;4989472;28;20262;-74
2023/07/26 10:13:50;;;;;;;1.58;1.20;;;;;;;;;;4989873;28;20183;-72
2023/07/26 10:16:15;;;;;;;1.55;1.23;;;;;;;;;;4989248;28;20186;-71
2023/07/26 10:18:41;;;;;;;4.35;1.77;;;;;;;;;;4990521;28;20179;-71
2023/07/26 10:21:08;;;;;;;4.80;1.40;;;;;;;;;;4990918;28;20179;-73
2023/07/26 10:23:33;;;;;;;4.82;2.25;;;;;;;;;;4990436;28;20179;-70
2023/07/26 10:26:00;;;;;;;3.58;1.38;;;;;;;;;;4990900;28;20238;-75
2023/07/26 10:28:26;;;;;;;4.18;1.73;;;;;;;;;;4991519;28;20191;-70
2023/07/26 10:30:52;;;;;;;3.60;1.70;;;;;;;;;;4988350;28;20210;-71
2023/07/26 10:33:17;;;;;;;3.03;1.75;;;;;;;;;;4990482;28;20276;-73
2023/07/26 10:35:43;;;;;;;4.10;1.50;;;;;;;;;;4990604;28;20183;-73
2023/07/26 10:38:08;;;;;;;2.08;1.73;;;;;;;;;;4985630;28;20211;-72
2023/07/26 10:40:37;;;;;;;3.15;1.23;;;;;;;;;;4989543;28;20195;-74
2023/07/26 10:43:17;;;;;;;4.43;1.50;;;;;;;;;;4987959;28;20234;-73
2023/07/26 10:45:45;;;;;;;2.50;1.30;;;;;;;;;;4985350;28;20716;-72
2023/07/26 10:48:26;;;;;;;3.72;1.73;;;;;;;;;;4987996;28;20207;-71
2023/07/26 10:50:54;;;;;;;2.75;1.60;;;;;;;;;;4989184;28;20198;-75
2023/07/26 10:53:38;;;;;;;3.25;1.80;;;;;;;;;;4987906;28;20692;-74
2023/07/26 10:56:06;;;;;;;5.30;2.22;;;;;;;;;;4988955;28;20654;-74
2023/07/26 10:58:31;;;;;;;1.92;1.60;;;;;;;;;;4986521;28;20867;-73
2023/07/26 11:01:01;;;;;;;3.83;1.70;;;;;;;;;;4989673;28;20297;-73
2023/07/26 11:03:27;;;;;;;3.28;1.60;;;;;;;;;;4989436;28;20422;-74
2023/07/26 11:05:56;;;;;;;2.38;1.30;;;;;;;;;;4988141;28;20202;-71
2023/07/26 11:08:21;;;;;;;4.47;2.13;;;;;;;;;;4986497;28;20230;-73
2023/07/26 11:10:50;;;;;;;2.33;1.65;;;;;;;;;;4985401;28;20207;-72
2023/07/26 11:13:16;;;;;;;3.78;1.70;;;;;;;;;;4973407;28;20918;-74
2023/07/26 11:15:49;;;;;;;4.55;1.55;;;;;;;;;;4973542;28;20183;-73
2023/07/26 11:18:16;;;;;;;2.65;1.27;;;;;;;;;;4972120;28;20226;-73
2023/07/26 11:20:45;;;;;;;4.05;1.80;;;;;;;;;;4973260;28;20246;-72
2023/07/26 11:23:17;;;;;;;4.75;1.60;;;;;;;;;;4973083;28;20708;-74
2023/07/26 11:25:44;;;;;;;4.03;1.50;;;;;;;;;;4971615;28;20192;-72
2023/07/26 11:28:09;;;;;;;4.40;1.52;;;;;;;;;;4972842;28;20215;-74
2023/07/26 11:30:37;;;;;;;2.28;1.50;;;;;;;;;;4973325;28;20285;-74
2023/07/26 11:33:03;;;;;;;2.15;1.38;;;;;;;;;;4973629;28;20214;-72
2023/07/26 11:35:37;;;;;;;2.47;1.70;;;;;;;;;;4973074;28;20855;-74
2023/07/26 11:38:02;;;;;;;5.47;1.95;;;;;;;;;;4973403;28;20930;-73
2023/07/26 11:40:27;;;;;;;2.73;1.40;;;;;;;;;;4972267;28;20186;-75
2023/07/26 11:42:52;;;;;;;3.85;1.90;;;;;;;;;;4973118;28;20435;-74
2023/07/26 11:45:18;;;;;;;7.10;1.95;;;;;;;;;;4974492;28;20191;-73
2023/07/26 11:47:43;;;;;;;2.45;1.45;;;;;;;;;;4973834;28;20211;-72
2023/07/26 11:50:09;;;;;;;4.65;2.65;;;;;;;;;;4972628;28;20187;-73
2023/07/26 11:52:35;;;;;;;3.10;1.80;;;;;;;;;;4972902;28;21268;-72
2023/07/26 11:55:02;;;;;;;4.13;1.48;;;;;;;;;;4979478;28;20332;-73
2023/07/26 11:57:28;;;;;;;2.30;1.60;;;;;;;;;;4973276;28;20730;-71
2023/07/26 12:00:04;;;;;;;3.22;1.80;;;;;;;;;;4977135;28;20279;-72
2023/07/26 12:02:29;;;;;;;5.78;2.08;;;;;;;;;;4971710;28;20186;-72
2023/07/26 12:05:14;;;;;;;2.67;1.90;;;;;;;;;;4970520;28;20244;-73
2023/07/26 12:07:42;;;;;;;2.50;1.45;;;;;;;;;;4989675;22;20238;-69
2023/07/26 12:10:09;;;;;;;2.67;1.80;;;;;;;;;;4972393;28;20247;-68
2023/07/26 12:12:43;;;;;;;2.33;1.73;;;;;;;;;;4968867;28;20214;-69
2023/07/26 12:15:09;;;;;;;3.42;1.70;;;;;;;;;;4971551;28;20871;-68
2023/07/26 12:17:35;;;;;;;3.90;1.48;;;;;;;;;;4969085;28;20330;-68
2023/07/26 12:20:04;;;;;;;3.10;1.50;;;;;;;;;;4978258;28;20204;-69
2023/07/26 12:22:29;;;;;;;4.15;1.75;;;;;;;;;;4983666;28;20537;-68
2023/07/26 12:24:54;;;;;;;4.45;1.55;;;;;;;;;;4984764;28;20209;-68
2023/07/26 12:27:20;;;;;;;2.85;1.35;;;;;;;;;;4985224;28;20235;-69
2023/07/26 12:29:45;;;;;;;4.60;2.22;;;;;;;;;;4969943;28;20703;-69
2023/07/26 12:32:14;;;;;;;2.83;1.88;;;;;;;;;;4970175;28;20247;-69
2023/07/26 12:34:42;;;;;;;3.40;1.60;;;;;;;;;;4984907;28;20229;-68
2023/07/26 12:37:07;;;;;;;7.35;2.00;;;;;;;;;;4986712;28;20287;-68
2023/07/26 12:39:33;;;;;;;2.60;1.65;;;;;;;;;;4988751;28;20657;-69
2023/07/26 12:41:58;;;;;;;4.47;2.10;;;;;;;;;;4973468;28;20194;-69
2023/07/26 12:44:26;;;;;;;2.17;1.52;;;;;;;;;;4972819;28;20318;-69
2023/07/26 12:46:51;;;;;;;1.90;1.38;;;;;;;;;;4989098;28;20207;-68
2023/07/26 12:49:18;;;;;;;3.22;1.73;;;;;;;;;;4991344;28;20191;-68
2023/07/26 12:51:43;;;;;;;3.53;1.63;;;;;;;;;;4972275;28;20227;-68
2023/07/26 12:54:08;;;;;;;2.07;1.43;;;;;;;;;;4991105;28;20303;-69
2023/07/26 12:56:33;;;;;;;3.10;1.77;;;;;;;;;;4989233;28;20425;-69
2023/07/26 12:58:59;;;;;;;5.55;1.60;;;;;;;;;;4972950;28;20904;-68
2023/07/26 13:01:24;;;;;;;2.97;1.50;;;;;;;;;;4985940;28;20282;-69
2023/07/26 13:03:49;;;;;;;1.70;1.35;;;;;;;;;;4969986;28;20187;-69
2023/07/26 13:06:14;;;;;;;2.17;1.45;;;;;;;;;;4958138;28;20183;-70
2023/07/26 13:08:40;;;;;;;3.22;1.45;;;;;;;;;;4955871;28;20215;-69
2023/07/26 13:11:05;;;;;;;2.42;1.20;;;;;;;;;;4974568;28;20763;-69
2023/07/26 13:13:30;;;;;;;3.13;1.50;;;;;;;;;;4973418;28;20288;-68
2023/07/26 13:15:56;;;;;;;2.28;1.50;;;;;;;;;;4976142;28;20187;-68
2023/07/26 13:18:21;;;;;;;2.42;1.48;;;;;;;;;;4985000;28;20198;-68
2023/07/26 13:20:46;;;;;;;6.20;1.73;;;;;;;;;;4972744;28;20207;-68
2023/07/26 13:23:12;;;;;;;3.85;1.63;;;;;;;;;;4988785;28;20198;-69
2023/07/26 13:25:37;;;;;;;1.95;1.48;;;;;;;;;;4986115;28;20219;-68
2023/07/26 13:28:03;;;;;;;4.03;1.90;;;;;;;;;;4989521;28;20213;-68
2023/07/26 13:30:28;;;;;;;2.38;1.88;;;;;;;;;;4986535;28;20700;-69
2023/07/26 13:32:53;;;;;;;2.50;1.70;;;;;;;;;;4988619;28;20237;-68
2023/07/26 13:35:18;;;;;;;2.95;1.98;;;;;;;;;;4971999;28;20219;-69
2023/07/26 13:37:44;;;;;;;2.10;1.50;;;;;;;;;;4988866;28;20222;-68
2023/07/26 13:40:09;;;;;;;3.13;1.88;;;;;;;;;;4969191;28;20184;-68
2023/07/26 13:42:34;;;;;;;2.67;1.58;;;;;;;;;;4972686;28;20199;-69
2023/07/26 13:45:01;;;;;;;2.67;1.48;;;;;;;;;;4987356;28;20193;-69
2023/07/26 13:47:26;;;;;;;2.65;1.80;;;;;;;;;;4969523;28;20207;-69
2023/07/26 13:49:51;;;;;;;1.73;1.27;;;;;;;;;;4971569;28;20211;-69
2023/07/26 13:52:17;;;;;;;3.30;1.75;;;;;;;;;;4989800;28;20233;-68
2023/07/26 13:54:42;;;;;;;2.92;1.60;;;;;;;;;;4971647;28;20191;-68
2023/07/26 13:57:08;;;;;;;2.55;1.77;;;;;;;;;;4987535;28;20579;-68
2023/07/26 13:59:36;;;;;;;5.03;2.05;;;;;;;;;;4988780;28;20254;-68
2023/07/26 14:02:03;;;;;;;2.80;2.10;;;;;;;;;;4989500;28;20266;-67
2023/07/26 14:04:28;;;;;;;2.80;1.42;;;;;;;;;;4989383;28;20199;-68
2023/07/26 14:06:53;;;;;;;4.60;1.73;;;;;;;;;;4988120;28;20246;-69
2023/07/26 14:09:18;;;;;;;3.78;1.70;;;;;;;;;;4969823;28;20194;-69
2023/07/26 14:11:44;;;;;;;3.70;1.50;;;;;;;;;;4967841;28;20301;-68
2023/07/26 14:14:09;;;;;;;3.65;1.52;;;;;;;;;;4985924;28;20183;-68
2023/07/26 14:16:35;;;;;;;3.10;1.70;;;;;;;;;;4986467;28;20187;-69
2023/07/26 14:19:00;;;;;;;2.55;1.40;;;;;;;;;;4969647;28;20264;-69
2023/07/26 14:21:25;;;;;;;5.47;2.03;;;;;;;;;;4987644;28;20812;-69
2023/07/26 14:23:50;;;;;;;5.10;1.77;;;;;;;;;;4987927;28;20215;-69
2023/07/26 14:26:16;;;;;;;4.55;1.70;;;;;;;;;;4971549;28;20448;-68
2023/07/26 14:28:41;;;;;;;3.40;1.70;;;;;;;;;;4987467;28;20299;-69
2023/07/26 14:31:06;;;;;;;2.53;1.80;;;;;;;;;;4989216;28;20180;-68
2023/07/26 14:33:31;;;;;;;2.53;1.50;;;;;;;;;;4987364;28;20222;-70